Main page
METAR-TAF:

METAR-TAF

Airports :

Albert – Picardie Airport

Albert, France

latitude: 49-58-21N, longitude: 002-41-29E, elevation: 111 m

Current weather observation

The report was made 46 minutes ago, at 01:00 UTC
Wind 8 kt from the South
Temperature 8°C
Humidity 93%
Pressure 1023 hPa
Visibility 10 km or more
Overcast at a height of 2100 ft

METAR: LFAQ 210100Z AUTO 18008KT 9999 OVC021 08/07 Q1023

Time: 02:46 (01:46 UTC)

Forecast

The report was made 11 hours and 46 minutes ago, at 14:00 UTC
Forecast valid from 20 at 15 UTC to 20 at 24 UTC
Wind 12 kt from the Southwest
Visibility 10 km or more
Broken clouds at a height of 2000 ft
Temporary
from 20 at 22 UTC to 20 at 24 UTC
Broken clouds at a height of 800 ft

TAF: LFAQ 201400Z 2015/2024 22012KT 9999 BKN020 TEMPO 2022/2024 BKN008

Weather observations and forecasts of more than 4000 airports (METAR and TAF reports).

The available stations are represented by yellow and red dots on the map.

Hover mouse over dot to see the name of the station.

Then click to see weather observations and forecasts.

To change the map : click on the green buttons with a black cross to zoom in, on the green button with a dash to zoom out, or on the green arrows for adjacent maps.


METAR-TAF: